Time;durP1;ratioP1;P1;durP2;ratioP2;P2;SDS_P1;SDS_P2;PMS_P1;PMS_P2;Temp;Humidity;BMP_temperature;BMP_pressure;BME280_temperature;BME280_humidity;BME280_pressure;Samples;Min_cycle;Max_cycle;Signal;HPM_P1;HPM_P2
2020/12/21 00:02:16;;;;;;;;;;;18.00;67.70;;;;;;5054084;28;20387;-66
2020/12/21 00:04:41;;;;;;;;;;;18.00;67.30;;;;;;5053504;28;19915;-65
2020/12/21 00:07:07;;;;;;;;;;;17.90;67.90;;;;;;5054290;28;19999;-65
2020/12/21 00:09:32;;;;;;;;;;;17.90;67.30;;;;;;5034524;28;19908;-66
2020/12/21 00:11:58;;;;;;;;;;;17.90;67.10;;;;;;5037430;28;20386;-67
2020/12/21 00:14:23;;;;;;;;;;;17.90;67.40;;;;;;5032669;28;19915;-66
2020/12/21 00:16:50;;;;;;;;;;;17.90;66.40;;;;;;5055293;28;19921;-66
2020/12/21 00:19:18;;;;;;;;;;;17.80;66.80;;;;;;5054824;28;20370;-66
2020/12/21 00:21:44;;;;;;;;;;;17.80;67.20;;;;;;5055346;28;19954;-67
2020/12/21 00:24:10;;;;;;;;;;;17.90;67.70;;;;;;5053980;28;19916;-68
2020/12/21 00:26:35;;;;;;;;;;;17.90;67.60;;;;;;5052220;28;19913;-66
2020/12/21 00:29:01;;;;;;;;;;;17.90;68.10;;;;;;5053271;28;19919;-67
2020/12/21 00:31:28;;;;;;;;;;;17.90;67.70;;;;;;5052841;28;19917;-66
2020/12/21 00:33:54;;;;;;;;;;;17.90;67.80;;;;;;5056695;28;19986;-66
2020/12/21 00:36:19;;;;;;;;;;;17.90;68.80;;;;;;5039055;28;19955;-66
2020/12/21 00:38:45;;;;;;;;;;;17.80;67.80;;;;;;5054621;28;19924;-66
2020/12/21 00:41:14;;;;;;;;;;;17.80;67.40;;;;;;5054488;28;19912;-66
2020/12/21 00:43:40;;;;;;;;;;;17.80;67.40;;;;;;5050578;28;19944;-66
2020/12/21 00:46:06;;;;;;;;;;;17.80;68.10;;;;;;5054001;28;19966;-67
2020/12/21 00:48:32;;;;;;;;;;;17.80;68.40;;;;;;5055907;28;20317;-65
2020/12/21 00:50:57;;;;;;;;;;;17.70;67.40;;;;;;5051857;28;19908;-65
2020/12/21 00:53:23;;;;;;;;;;;17.70;68.30;;;;;;5051470;28;19916;-67
2020/12/21 00:55:49;;;;;;;;;;;17.70;67.80;;;;;;5052285;28;19919;-66
2020/12/21 00:58:14;;;;;;;;;;;17.70;68.50;;;;;;5055929;28;19920;-66
2020/12/21 01:00:40;;;;;;;;;;;17.70;68.40;;;;;;5045740;28;20009;-66
2020/12/21 01:03:05;;;;;;;;;;;17.70;67.70;;;;;;5062916;28;19912;-67
2020/12/21 01:05:31;;;;;;;;;;;17.70;67.80;;;;;;5064695;28;19909;-66
2020/12/21 01:07:56;;;;;;;;;;;17.70;68.10;;;;;;5040173;28;19995;-66
2020/12/21 01:10:22;;;;;;;;;;;17.70;68.60;;;;;;5051256;28;19909;-66
2020/12/21 01:12:47;;;;;;;;;;;17.70;68.10;;;;;;5052498;28;19920;-64
2020/12/21 01:15:12;;;;;;;;;;;17.70;67.30;;;;;;5058415;28;19913;-63
2020/12/21 01:17:38;;;;;;;;;;;17.70;67.90;;;;;;5055526;28;19931;-66
2020/12/21 01:20:04;;;;;;;;;;;17.70;68.50;;;;;;5039607;28;19935;-63
2020/12/21 01:22:30;;;;;;;;;;;17.70;68.20;;;;;;5034453;28;19909;-65
2020/12/21 01:24:55;;;;;;;;;;;17.70;67.60;;;;;;5031525;28;20026;-64
2020/12/21 01:27:20;;;;;;;;;;;17.70;68.70;;;;;;5052416;28;19962;-64
2020/12/21 01:29:46;;;;;;;;;;;17.60;68.50;;;;;;5052832;28;19912;-65
2020/12/21 01:32:11;;;;;;;;;;;17.60;68.10;;;;;;5035506;28;19909;-66
2020/12/21 01:34:37;;;;;;;;;;;17.60;68.10;;;;;;5056086;28;19920;-64
2020/12/21 01:37:02;;;;;;;;;;;17.60;68.50;;;;;;5054202;28;19924;-64
2020/12/21 01:39:28;;;;;;;;;;;17.60;68.20;;;;;;5050668;28;19908;-64
2020/12/21 01:41:53;;;;;;;;;;;17.70;68.10;;;;;;5033707;28;19934;-65
2020/12/21 01:44:19;;;;;;;;;;;17.70;68.70;;;;;;5026390;28;19913;-63
2020/12/21 01:46:44;;;;;;;;;;;17.60;68.50;;;;;;5051493;28;20039;-62
2020/12/21 01:49:10;;;;;;;;;;;17.70;68.70;;;;;;5050496;28;19908;-63
2020/12/21 01:51:36;;;;;;;;;;;17.60;68.80;;;;;;5046048;28;19970;-65
2020/12/21 01:54:01;;;;;;;;;;;17.60;68.30;;;;;;5044635;28;19977;-65
2020/12/21 01:56:26;;;;;;;;;;;17.60;69.00;;;;;;5051685;28;20408;-64
2020/12/21 01:58:52;;;;;;;;;;;17.60;68.70;;;;;;5050638;28;20384;-66
2020/12/21 02:01:18;;;;;;;;;;;17.60;68.70;;;;;;5054864;28;19904;-63
2020/12/21 02:03:44;;;;;;;;;;;17.60;68.60;;;;;;5041415;28;19916;-64
2020/12/21 02:06:10;;;;;;;;;;;17.60;68.00;;;;;;5051357;28;19905;-66
2020/12/21 02:08:36;;;;;;;;;;;17.60;68.40;;;;;;5058229;28;19913;-62
2020/12/21 02:11:02;;;;;;;;;;;17.50;68.30;;;;;;5037405;28;20296;-63
2020/12/21 02:13:27;;;;;;;;;;;17.50;68.20;;;;;;5050155;28;19909;-66
2020/12/21 02:15:54;;;;;;;;;;;17.50;68.70;;;;;;5052319;28;19916;-68
2020/12/21 02:18:19;;;;;;;;;;;17.50;68.90;;;;;;5058571;28;19905;-68
2020/12/21 02:20:45;;;;;;;;;;;17.50;68.70;;;;;;5058149;28;20293;-65
2020/12/21 02:23:10;;;;;;;;;;;17.50;68.50;;;;;;5043893;28;19916;-64
2020/12/21 02:25:36;;;;;;;;;;;17.60;68.60;;;;;;5048447;28;20010;-63
2020/12/21 02:28:01;;;;;;;;;;;17.50;68.00;;;;;;5059715;28;19917;-64
2020/12/21 02:30:27;;;;;;;;;;;17.50;68.30;;;;;;5054304;28;19905;-64
2020/12/21 02:32:52;;;;;;;;;;;17.60;68.60;;;;;;5056390;28;19916;-62
2020/12/21 02:35:17;;;;;;;;;;;17.50;68.20;;;;;;5062994;28;20333;-66
2020/12/21 02:37:43;;;;;;;;;;;17.50;67.80;;;;;;5032251;28;20401;-64
2020/12/21 02:40:09;;;;;;;;;;;17.50;67.70;;;;;;5055607;28;19909;-65
2020/12/21 02:42:34;;;;;;;;;;;17.50;66.90;;;;;;5057928;28;19984;-67
2020/12/21 02:45:00;;;;;;;;;;;17.40;67.00;;;;;;5058575;28;19908;-68
2020/12/21 02:47:25;;;;;;;;;;;17.40;67.00;;;;;;5049830;28;20312;-65
2020/12/21 02:49:51;;;;;;;;;;;17.40;67.10;;;;;;5065354;28;19904;-67
2020/12/21 02:52:16;;;;;;;;;;;17.40;67.10;;;;;;5062201;28;19931;-64
2020/12/21 02:54:42;;;;;;;;;;;17.40;68.00;;;;;;5053144;28;19904;-64
2020/12/21 02:57:08;;;;;;;;;;;17.40;67.50;;;;;;5059552;28;19916;-63
2020/12/21 02:59:33;;;;;;;;;;;17.40;67.70;;;;;;5058425;28;19909;-63
2020/12/21 03:01:59;;;;;;;;;;;17.40;68.00;;;;;;5063643;28;20349;-66
2020/12/21 03:04:24;;;;;;;;;;;17.40;68.60;;;;;;5067078;28;19931;-65
2020/12/21 03:06:50;;;;;;;;;;;17.40;67.50;;;;;;5066445;28;19916;-66
2020/12/21 03:09:15;;;;;;;;;;;17.40;67.80;;;;;;5058101;28;19970;-64
2020/12/21 03:11:44;;;;;;;;;;;17.40;67.80;;;;;;5068275;28;20288;-63
2020/12/21 03:14:09;;;;;;;;;;;17.40;68.30;;;;;;5064528;28;20015;-66
2020/12/21 03:16:35;;;;;;;;;;;17.40;68.10;;;;;;5042990;28;20043;-64
2020/12/21 03:19:00;;;;;;;;;;;17.40;68.00;;;;;;5068589;28;19954;-64
2020/12/21 03:21:25;;;;;;;;;;;17.40;68.40;;;;;;5064459;28;19963;-64
2020/12/21 03:23:51;;;;;;;;;;;17.40;67.90;;;;;;5044168;28;19916;-64
2020/12/21 03:26:16;;;;;;;;;;;17.40;68.50;;;;;;5058867;28;19924;-63
2020/12/21 03:28:42;;;;;;;;;;;17.30;68.40;;;;;;5064658;28;19915;-65
2020/12/21 03:31:07;;;;;;;;;;;17.30;68.10;;;;;;5061417;28;19908;-64
2020/12/21 03:33:32;;;;;;;;;;;17.30;67.60;;;;;;5049485;28;19908;-63
2020/12/21 03:35:58;;;;;;;;;;;17.30;68.40;;;;;;5064716;28;20301;-63
2020/12/21 03:38:24;;;;;;;;;;;17.30;68.40;;;;;;5059086;28;20011;-65
2020/12/21 03:40:49;;;;;;;;;;;17.30;67.50;;;;;;5056904;28;19916;-66
2020/12/21 03:43:18;;;;;;;;;;;17.20;67.00;;;;;;5062322;28;20360;-65
2020/12/21 03:45:44;;;;;;;;;;;17.20;67.70;;;;;;5059942;28;19908;-65
2020/12/21 03:48:10;;;;;;;;;;;17.20;67.60;;;;;;5067672;28;19934;-65
2020/12/21 03:50:35;;;;;;;;;;;17.20;66.90;;;;;;5042808;28;19908;-65
2020/12/21 03:53:00;;;;;;;;;;;17.20;67.70;;;;;;5053049;28;19909;-66
2020/12/21 03:55:26;;;;;;;;;;;17.20;67.90;;;;;;5037025;28;19921;-65
2020/12/21 03:57:51;;;;;;;;;;;17.20;67.60;;;;;;5047021;28;19919;-67
2020/12/21 04:00:17;;;;;;;;;;;17.20;67.50;;;;;;5060805;28;19915;-66
2020/12/21 04:02:42;;;;;;;;;;;17.20;68.00;;;;;;5052237;28;19909;-66
2020/12/21 04:05:08;;;;;;;;;;;17.20;68.40;;;;;;5045524;28;19908;-67
2020/12/21 04:07:35;;;;;;;;;;;17.30;67.90;;;;;;5045572;28;19915;-65
2020/12/21 04:10:01;;;;;;;;;;;17.20;67.40;;;;;;5038603;28;19916;-67
2020/12/21 04:12:26;;;;;;;;;;;17.20;68.20;;;;;;5053980;28;19912;-66
2020/12/21 04:14:52;;;;;;;;;;;17.20;66.90;;;;;;5059896;28;19947;-66
2020/12/21 04:17:17;;;;;;;;;;;17.20;67.30;;;;;;5063200;28;19916;-65
2020/12/21 04:19:43;;;;;;;;;;;17.20;67.90;;;;;;5066709;28;19908;-65
2020/12/21 04:22:08;;;;;;;;;;;17.10;67.60;;;;;;5062751;28;19908;-65
2020/12/21 04:24:33;;;;;;;;;;;17.20;67.40;;;;;;5057888;28;19956;-65
2020/12/21 04:26:59;;;;;;;;;;;17.10;67.20;;;;;;5065651;28;19909;-66
2020/12/21 04:29:24;;;;;;;;;;;17.10;67.00;;;;;;5059931;28;19909;-66
2020/12/21 04:31:54;;;;;;;;;;;17.10;67.60;;;;;;5063103;28;20361;-66
2020/12/21 04:34:19;;;;;;;;;;;17.10;66.70;;;;;;5061354;28;19908;-66
2020/12/21 04:36:45;;;;;;;;;;;17.10;67.00;;;;;;5056547;28;19978;-66
2020/12/21 04:39:10;;;;;;;;;;;17.10;67.80;;;;;;5042462;28;20341;-65
2020/12/21 04:41:35;;;;;;;;;;;17.10;67.50;;;;;;5060808;28;20474;-65
2020/12/21 04:44:01;;;;;;;;;;;17.10;67.10;;;;;;5046078;28;20397;-66
2020/12/21 04:46:27;;;;;;;;;;;17.00;67.10;;;;;;5060378;28;19913;-65
2020/12/21 04:48:58;;;;;;;;;;;17.00;67.50;;;;;;5035712;28;19909;-66
2020/12/21 04:51:31;;;;;;;;;;;17.00;67.30;;;;;;5064752;28;19917;-65
2020/12/21 04:53:56;;;;;;;;;;;17.00;66.60;;;;;;5053913;28;19908;-66
2020/12/21 04:56:22;;;;;;;;;;;17.00;66.80;;;;;;5038840;28;19912;-65
2020/12/21 04:58:47;;;;;;;;;;;17.00;67.20;;;;;;5052477;28;19953;-65
2020/12/21 05:01:12;;;;;;;;;;;16.90;65.50;;;;;;5063771;28;19943;-65
2020/12/21 05:03:38;;;;;;;;;;;17.00;66.00;;;;;;5060214;28;20283;-64
2020/12/21 05:06:07;;;;;;;;;;;17.00;67.10;;;;;;5047499;28;20525;-64
2020/12/21 05:08:32;;;;;;;;;;;17.00;66.60;;;;;;5059981;28;19909;-63
2020/12/21 05:10:59;;;;;;;;;;;17.00;66.40;;;;;;5057009;28;19908;-63
2020/12/21 05:13:25;;;;;;;;;;;17.00;66.80;;;;;;5051822;28;19916;-64
2020/12/21 05:15:51;;;;;;;;;;;17.00;65.70;;;;;;5056411;28;20296;-63
2020/12/21 05:18:16;;;;;;;;;;;17.00;66.20;;;;;;5063282;28;19912;-63
2020/12/21 05:20:42;;;;;;;;;;;17.00;65.90;;;;;;5026292;28;19923;-65
2020/12/21 05:23:17;;;;;;;;;;;17.00;66.70;;;;;;5024312;28;19959;-64
2020/12/21 05:25:43;;;;;;;;;;;17.00;65.60;;;;;;5047379;28;19909;-65
2020/12/21 05:28:12;;;;;;;;;;;17.00;65.90;;;;;;5047704;28;19969;-63
2020/12/21 05:30:49;;;;;;;;;;;16.90;65.70;;;;;;5058504;28;20618;-63
2020/12/21 05:33:15;;;;;;;;;;;16.90;65.70;;;;;;5030820;28;19909;-64
2020/12/21 05:35:40;;;;;;;;;;;16.90;66.50;;;;;;5056036;28;19967;-63
2020/12/21 05:38:06;;;;;;;;;;;16.90;65.40;;;;;;5049433;28;19913;-64
2020/12/21 05:40:31;;;;;;;;;;;16.90;65.40;;;;;;5054840;28;19951;-64
2020/12/21 05:42:56;;;;;;;;;;;16.80;65.20;;;;;;5025830;28;19955;-64
2020/12/21 05:45:22;;;;;;;;;;;16.90;66.70;;;;;;5056888;28;20320;-66
2020/12/21 05:47:49;;;;;;;;;;;16.90;65.30;;;;;;5057716;28;20343;-66
2020/12/21 05:50:19;;;;;;;;;;;16.90;65.80;;;;;;5045859;28;19916;-65
2020/12/21 05:52:45;;;;;;;;;;;16.90;65.80;;;;;;5051116;28;19908;-62
2020/12/21 05:55:11;;;;;;;;;;;16.90;65.80;;;;;;5030930;28;19961;-64
2020/12/21 05:57:37;;;;;;;;;;;16.90;65.00;;;;;;5017105;28;20420;-63
2020/12/21 06:00:04;;;;;;;;;;;16.90;65.00;;;;;;5037161;28;19913;-62
2020/12/21 06:02:33;;;;;;;;;;;16.90;65.50;;;;;;5056296;28;19919;-64
2020/12/21 06:05:00;;;;;;;;;;;16.90;66.00;;;;;;5039502;28;19916;-64
2020/12/21 06:07:27;;;;;;;;;;;17.00;65.90;;;;;;5062146;28;19915;-63
2020/12/21 06:09:55;;;;;;;;;;;17.00;65.20;;;;;;5042253;28;19990;-64
2020/12/21 06:12:21;;;;;;;;;;;16.90;65.00;;;;;;5016009;28;19912;-65
2020/12/21 06:14:47;;;;;;;;;;;17.00;64.50;;;;;;5033091;28;19932;-64
2020/12/21 06:17:13;;;;;;;;;;;16.90;63.90;;;;;;5026564;28;20385;-64
2020/12/21 06:19:39;;;;;;;;;;;17.00;64.80;;;;;;5046087;28;20454;-64
2020/12/21 06:22:05;;;;;;;;;;;17.00;64.90;;;;;;5028459;28;20011;-64
2020/12/21 06:24:35;;;;;;;;;;;17.00;64.70;;;;;;5041344;28;19909;-65
2020/12/21 06:27:10;;;;;;;;;;;17.00;64.70;;;;;;5040697;28;19944;-65
2020/12/21 06:29:37;;;;;;;;;;;16.90;64.30;;;;;;5042438;28;19963;-65
2020/12/21 06:32:28;;;;;;;;;;;17.00;65.00;;;;;;5048831;28;20309;-62
2020/12/21 06:34:54;;;;;;;;;;;17.00;64.80;;;;;;5048473;28;19959;-64
2020/12/21 06:37:19;;;;;;;;;;;17.00;64.80;;;;;;5046975;28;19947;-64
2020/12/21 06:39:55;;;;;;;;;;;17.00;64.60;;;;;;5045198;28;19935;-64
2020/12/21 06:42:22;;;;;;;;;;;17.00;64.90;;;;;;5051788;28;19913;-64
2020/12/21 06:44:49;;;;;;;;;;;17.10;64.50;;;;;;5037777;28;19919;-63
2020/12/21 06:47:14;;;;;;;;;;;17.00;63.70;;;;;;5030785;28;20450;-64
2020/12/21 06:49:40;;;;;;;;;;;17.00;64.50;;;;;;5028402;28;20270;-65
2020/12/21 06:52:06;;;;;;;;;;;17.10;64.70;;;;;;5033473;28;20297;-63
2020/12/21 06:54:31;;;;;;;;;;;17.10;64.20;;;;;;5033048;28;19952;-63
2020/12/21 06:56:57;;;;;;;;;;;17.10;64.90;;;;;;5046951;28;20348;-65
2020/12/21 06:59:23;;;;;;;;;;;17.20;65.60;;;;;;5045207;28;19909;-63
2020/12/21 07:01:50;;;;;;;;;;;17.20;65.30;;;;;;5048740;28;19909;-65
2020/12/21 07:04:16;;;;;;;;;;;17.20;66.10;;;;;;5051238;28;20297;-64
2020/12/21 07:06:42;;;;;;;;;;;17.30;65.70;;;;;;5048768;28;19916;-64
2020/12/21 07:09:08;;;;;;;;;;;17.20;62.70;;;;;;5036700;28;19908;-63
2020/12/21 07:11:34;;;;;;;;;;;17.20;63.60;;;;;;5057969;28;19916;-62
2020/12/21 07:13:59;;;;;;;;;;;17.20;63.80;;;;;;5053455;28;20285;-63
2020/12/21 07:16:25;;;;;;;;;;;17.20;64.30;;;;;;5067631;28;19912;-63
2020/12/21 07:18:51;;;;;;;;;;;17.10;63.80;;;;;;5035165;28;19908;-65
2020/12/21 07:21:16;;;;;;;;;;;17.10;63.20;;;;;;5054411;28;19913;-64
2020/12/21 07:23:43;;;;;;;;;;;17.10;63.10;;;;;;5060981;28;19912;-64
2020/12/21 07:26:09;;;;;;;;;;;17.10;63.20;;;;;;5058172;28;20003;-63
2020/12/21 07:28:35;;;;;;;;;;;17.00;62.40;;;;;;5053485;28;19924;-63
2020/12/21 07:31:03;;;;;;;;;;;17.00;62.40;;;;;;5055610;28;20323;-64
2020/12/21 07:33:29;;;;;;;;;;;17.00;62.90;;;;;;5054230;28;19915;-65
2020/12/21 07:35:58;;;;;;;;;;;17.00;63.10;;;;;;5039438;28;19913;-63
2020/12/21 07:38:23;;;;;;;;;;;16.90;63.40;;;;;;5032763;28;19909;-63
2020/12/21 07:40:49;;;;;;;;;;;16.90;64.50;;;;;;5034271;28;19913;-64
2020/12/21 07:43:17;;;;;;;;;;;17.00;64.10;;;;;;5059958;28;19913;-64
2020/12/21 07:45:45;;;;;;;;;;;16.90;64.50;;;;;;5027522;28;19909;-64
2020/12/21 07:48:12;;;;;;;;;;;17.00;61.90;;;;;;5046881;28;20294;-62
2020/12/21 07:50:39;;;;;;;;;;;17.20;63.60;;;;;;5034507;28;20286;-64
2020/12/21 07:53:04;;;;;;;;;;;17.10;63.70;;;;;;5058205;28;19915;-65
2020/12/21 07:55:30;;;;;;;;;;;17.20;62.80;;;;;;5042205;28;20019;-66
2020/12/21 07:57:55;;;;;;;;;;;17.20;62.80;;;;;;5061308;28;19912;-64
2020/12/21 08:00:20;;;;;;;;;;;17.20;62.50;;;;;;5067656;28;20323;-65
2020/12/21 08:02:49;;;;;;;;;;;17.20;62.20;;;;;;5050477;28;19916;-68
2020/12/21 08:05:18;;;;;;;;;;;17.30;62.80;;;;;;5051907;28;19917;-65
2020/12/21 08:07:43;;;;;;;;;;;17.40;62.60;;;;;;5055401;28;19920;-63
2020/12/21 08:10:11;;;;;;;;;;;17.50;64.80;;;;;;5051475;28;19908;-65
2020/12/21 08:12:36;;;;;;;;;;;17.50;66.20;;;;;;5058051;28;19935;-65
2020/12/21 08:15:02;;;;;;;;;;;17.60;66.90;;;;;;5055983;28;19909;-64
2020/12/21 08:17:28;;;;;;;;;;;17.60;67.00;;;;;;5060147;28;19919;-65
2020/12/21 08:19:55;;;;;;;;;;;17.50;66.70;;;;;;5032307;28;20003;-65
2020/12/21 08:22:25;;;;;;;;;;;17.50;67.40;;;;;;5053457;28;20277;-64
2020/12/21 08:25:10;;;;;;;;;;;17.60;67.10;;;;;;5032682;28;20018;-63
2020/12/21 08:27:36;;;;;;;;;;;17.60;66.40;;;;;;5029298;28;19908;-64
2020/12/21 08:30:12;;;;;;;;;;;17.60;66.20;;;;;;5051770;28;19952;-65
2020/12/21 08:32:37;;;;;;;;;;;17.60;66.00;;;;;;5045307;28;20494;-65
2020/12/21 08:35:03;;;;;;;;;;;17.60;64.50;;;;;;5039294;28;19917;-71
2020/12/21 08:37:28;;;;;;;;;;;17.70;64.40;;;;;;5051277;28;20296;-69
2020/12/21 08:39:54;;;;;;;;;;;17.80;64.50;;;;;;5037426;28;19908;-63
2020/12/21 08:42:19;;;;;;;;;;;17.90;65.50;;;;;;5051541;28;20345;-64
2020/12/21 08:44:48;;;;;;;;;;;17.90;64.30;;;;;;5058343;28;19908;-63
2020/12/21 08:47:13;;;;;;;;;;;18.00;62.40;;;;;;5062714;28;19912;-62
2020/12/21 08:49:39;;;;;;;;;;;18.20;61.00;;;;;;5043907;28;19912;-63
2020/12/21 08:52:04;;;;;;;;;;;18.30;61.50;;;;;;5052775;28;19915;-64
2020/12/21 08:54:30;;;;;;;;;;;18.40;60.80;;;;;;5056481;28;19924;-63
2020/12/21 08:56:59;;;;;;;;;;;18.40;60.20;;;;;;5058128;28;19923;-64
2020/12/21 08:59:25;;;;;;;;;;;18.50;59.40;;;;;;5061098;28;19943;-63
2020/12/21 09:01:50;;;;;;;;;;;18.60;59.00;;;;;;5050123;28;19908;-62
2020/12/21 09:04:16;;;;;;;;;;;18.70;59.10;;;;;;5032819;28;19974;-63
2020/12/21 09:06:41;;;;;;;;;;;18.70;59.00;;;;;;5046302;28;19936;-66
2020/12/21 09:09:07;;;;;;;;;;;18.80;55.40;;;;;;5044650;28;19955;-64
2020/12/21 09:11:33;;;;;;;;;;;18.60;52.00;;;;;;5049116;28;19908;-64
2020/12/21 09:13:58;;;;;;;;;;;18.50;49.50;;;;;;5066547;28;19914;-63
2020/12/21 09:16:25;;;;;;;;;;;18.40;50.20;;;;;;5051413;28;19913;-64
2020/12/21 09:18:51;;;;;;;;;;;18.30;48.90;;;;;;5061175;28;20430;-64
2020/12/21 09:21:17;;;;;;;;;;;18.30;50.50;;;;;;5062274;28;20265;-64
2020/12/21 09:23:43;;;;;;;;;;;18.20;48.80;;;;;;5052607;28;19920;-63
2020/12/21 09:26:08;;;;;;;;;;;18.20;49.50;;;;;;5060138;28;20070;-63
2020/12/21 09:28:33;;;;;;;;;;;18.20;49.70;;;;;;5067177;28;19962;-65
2020/12/21 09:30:59;;;;;;;;;;;18.20;50.80;;;;;;5062037;28;19995;-64
2020/12/21 09:33:24;;;;;;;;;;;18.00;50.00;;;;;;5052590;28;20013;-64
2020/12/21 09:35:50;;;;;;;;;;;18.00;49.60;;;;;;5069466;28;20003;-64
2020/12/21 09:38:15;;;;;;;;;;;18.20;50.30;;;;;;5063986;28;19962;-63
2020/12/21 09:40:41;;;;;;;;;;;18.20;48.90;;;;;;5061463;28;19908;-64
2020/12/21 09:43:06;;;;;;;;;;;18.30;49.50;;;;;;5050100;28;20019;-64
2020/12/21 09:45:31;;;;;;;;;;;18.30;50.00;;;;;;5050192;28;20451;-64
2020/12/21 09:47:57;;;;;;;;;;;18.40;50.80;;;;;;5051202;28;19916;-64
2020/12/21 09:50:22;;;;;;;;;;;18.40;49.10;;;;;;5049907;28;19915;-64
2020/12/21 09:52:48;;;;;;;;;;;18.40;48.00;;;;;;5054839;28;19920;-65
2020/12/21 09:55:15;;;;;;;;;;;18.40;47.30;;;;;;5048938;28;19909;-64
2020/12/21 09:57:40;;;;;;;;;;;18.30;48.10;;;;;;5057774;28;20400;-65
2020/12/21 10:00:06;;;;;;;;;;;18.20;47.90;;;;;;5057426;28;20014;-66
2020/12/21 10:02:31;;;;;;;;;;;18.00;47.10;;;;;;5058491;28;19909;-64
2020/12/21 10:04:57;;;;;;;;;;;18.10;49.70;;;;;;5045921;28;19971;-65
2020/12/21 10:07:22;;;;;;;;;;;18.10;48.80;;;;;;5021681;28;19978;-62
2020/12/21 10:09:48;;;;;;;;;;;18.10;50.10;;;;;;5044026;28;20360;-62
2020/12/21 10:12:13;;;;;;;;;;;18.20;50.90;;;;;;5051572;28;19962;-65
2020/12/21 10:14:41;;;;;;;;;;;18.30;52.40;;;;;;5056664;28;20294;-65
2020/12/21 10:17:07;;;;;;;;;;;18.40;52.20;;;;;;5032384;28;19927;-62
2020/12/21 10:19:32;;;;;;;;;;;18.40;52.00;;;;;;5053814;28;19916;-64
2020/12/21 10:21:58;;;;;;;;;;;18.10;52.10;;;;;;5046616;28;20307;-65
2020/12/21 10:24:23;;;;;;;;;;;18.10;52.00;;;;;;5031670;28;20289;-63
2020/12/21 10:26:49;;;;;;;;;;;18.20;51.80;;;;;;5037684;28;20448;-62
2020/12/21 10:29:14;;;;;;;;;;;18.30;52.30;;;;;;5035116;28;20361;-63
2020/12/21 10:31:39;;;;;;;;;;;18.30;51.30;;;;;;5053397;28;20035;-63
2020/12/21 10:34:05;;;;;;;;;;;18.30;52.70;;;;;;5026614;28;20393;-64
2020/12/21 10:36:30;;;;;;;;;;;18.40;51.90;;;;;;5054528;28;19960;-66
2020/12/21 10:38:56;;;;;;;;;;;18.40;53.60;;;;;;5041953;28;20556;-64
2020/12/21 10:41:21;;;;;;;;;;;18.50;52.50;;;;;;5049376;28;19960;-64
2020/12/21 10:43:47;;;;;;;;;;;18.50;53.30;;;;;;5030031;28;20366;-62
2020/12/21 10:46:18;;;;;;;;;;;18.50;52.90;;;;;;5048127;28;19955;-61
2020/12/21 10:48:43;;;;;;;;;;;17.50;50.00;;;;;;5043552;28;19909;-63
2020/12/21 10:51:09;;;;;;;;;;;17.50;52.90;;;;;;5034304;28;20373;-63
2020/12/21 10:53:34;;;;;;;;;;;17.70;53.50;;;;;;5061356;28;19908;-63
2020/12/21 10:56:00;;;;;;;;;;;17.80;53.60;;;;;;5053980;28;19920;-63
2020/12/21 10:58:25;;;;;;;;;;;17.90;54.40;;;;;;5024907;28;19909;-65
2020/12/21 11:00:51;;;;;;;;;;;18.00;54.50;;;;;;5049916;28;20042;-67
2020/12/21 11:03:16;;;;;;;;;;;18.00;54.60;;;;;;5058573;28;19954;-64
2020/12/21 11:05:41;;;;;;;;;;;18.00;54.50;;;;;;5054183;28;20007;-66
2020/12/21 11:08:07;;;;;;;;;;;18.00;54.10;;;;;;5058581;28;19909;-62
2020/12/21 11:10:32;;;;;;;;;;;17.90;54.60;;;;;;5051259;28;20270;-63
2020/12/21 11:12:58;;;;;;;;;;;17.90;54.40;;;;;;5059875;28;19904;-64
2020/12/21 11:15:24;;;;;;;;;;;17.90;54.30;;;;;;5054922;28;20626;-67
2020/12/21 11:17:49;;;;;;;;;;;17.90;53.80;;;;;;5063398;28;19909;-65
2020/12/21 11:20:14;;;;;;;;;;;17.90;54.50;;;;;;5059751;28;19908;-63
2020/12/21 11:22:42;;;;;;;;;;;17.80;54.60;;;;;;5061328;28;19999;-62
2020/12/21 11:25:07;;;;;;;;;;;17.80;54.50;;;;;;5059319;28;19935;-63
2020/12/21 11:27:33;;;;;;;;;;;17.90;55.90;;;;;;5064286;28;19908;-62
2020/12/21 11:29:58;;;;;;;;;;;17.80;54.40;;;;;;5060607;28;20373;-62
2020/12/21 11:32:24;;;;;;;;;;;17.90;54.60;;;;;;5059283;28;19992;-63
2020/12/21 11:34:49;;;;;;;;;;;17.80;54.20;;;;;;5061049;28;19955;-63
2020/12/21 11:37:15;;;;;;;;;;;17.70;55.50;;;;;;5035138;28;19909;-64
2020/12/21 11:39:40;;;;;;;;;;;17.70;56.10;;;;;;5067647;28;20289;-63
2020/12/21 11:42:06;;;;;;;;;;;17.70;54.60;;;;;;5058779;28;19909;-64
2020/12/21 11:44:32;;;;;;;;;;;17.70;54.40;;;;;;5060559;28;19909;-62
2020/12/21 11:46:57;;;;;;;;;;;17.60;54.30;;;;;;5035160;28;19912;-62
2020/12/21 11:49:23;;;;;;;;;;;17.60;54.70;;;;;;5053018;28;19905;-63
2020/12/21 11:51:48;;;;;;;;;;;17.60;54.60;;;;;;5053305;28;19909;-64
2020/12/21 11:54:13;;;;;;;;;;;17.60;55.10;;;;;;5060357;28;20006;-62
2020/12/21 11:56:39;;;;;;;;;;;17.60;55.30;;;;;;5061188;28;20021;-63
2020/12/21 11:59:04;;;;;;;;;;;17.60;55.50;;;;;;5060489;28;19944;-64
2020/12/21 12:01:30;;;;;;;;;;;17.60;54.70;;;;;;5054145;28;19940;-62
2020/12/21 12:03:55;;;;;;;;;;;17.60;55.40;;;;;;5067261;28;19912;-63
2020/12/21 12:06:24;;;;;;;;;;;17.60;55.20;;;;;;5042621;28;19909;-63
2020/12/21 12:08:50;;;;;;;;;;;17.60;55.60;;;;;;5046382;28;20540;-63
2020/12/21 12:11:19;;;;;;;;;;;17.60;56.30;;;;;;5063931;28;19950;-64
2020/12/21 12:13:45;;;;;;;;;;;17.50;55.60;;;;;;5042397;28;19917;-64
2020/12/21 12:16:10;;;;;;;;;;;17.50;55.70;;;;;;5047633;28;19919;-64
2020/12/21 12:18:35;;;;;;;;;;;17.50;55.80;;;;;;5044442;28;19916;-63
2020/12/21 12:21:01;;;;;;;;;;;17.40;55.50;;;;;;5040468;28;19909;-67
2020/12/21 12:23:26;;;;;;;;;;;17.40;56.20;;;;;;5066781;28;19912;-63
2020/12/21 12:25:52;;;;;;;;;;;17.50;55.80;;;;;;5058946;28;19917;-62
2020/12/21 12:28:18;;;;;;;;;;;17.50;57.40;;;;;;5064124;28;19909;-65
2020/12/21 12:30:43;;;;;;;;;;;17.50;57.20;;;;;;5037322;28;19959;-65
2020/12/21 12:33:09;;;;;;;;;;;17.50;57.50;;;;;;5030068;28;19912;-67
2020/12/21 12:35:34;;;;;;;;;;;17.60;57.30;;;;;;5046015;28;19912;-63
2020/12/21 12:37:59;;;;;;;;;;;17.60;57.40;;;;;;5053332;28;20270;-65
2020/12/21 12:40:25;;;;;;;;;;;17.50;58.40;;;;;;5036103;28;19908;-67
2020/12/21 12:42:50;;;;;;;;;;;17.50;58.60;;;;;;5064800;28;19908;-65
2020/12/21 12:45:16;;;;;;;;;;;17.60;58.80;;;;;;5050784;28;20258;-69
2020/12/21 12:47:41;;;;;;;;;;;17.60;58.80;;;;;;5028573;28;19908;-67
2020/12/21 12:50:07;;;;;;;;;;;17.60;59.00;;;;;;5048591;28;19917;-69
2020/12/21 12:52:34;;;;;;;;;;;17.50;58.80;;;;;;5045433;28;19998;-66
2020/12/21 12:55:00;;;;;;;;;;;17.50;59.30;;;;;;5051446;28;19917;-67
2020/12/21 12:57:25;;;;;;;;;;;17.50;59.50;;;;;;5045894;28;19920;-66
2020/12/21 12:59:50;;;;;;;;;;;17.50;59.40;;;;;;5060425;28;20324;-67
2020/12/21 13:02:16;;;;;;;;;;;17.50;58.70;;;;;;5053329;28;20460;-69
2020/12/21 13:04:41;;;;;;;;;;;17.50;58.90;;;;;;5049254;28;19940;-65
2020/12/21 13:07:07;;;;;;;;;;;17.50;59.80;;;;;;5038641;28;19912;-69
2020/12/21 13:09:32;;;;;;;;;;;17.40;60.90;;;;;;5058025;28;19909;-66
2020/12/21 13:11:58;;;;;;;;;;;17.30;60.50;;;;;;5044714;28;20234;-66
2020/12/21 13:14:23;;;;;;;;;;;17.30;60.80;;;;;;5053836;28;19908;-66
2020/12/21 13:16:49;;;;;;;;;;;17.30;60.70;;;;;;5041683;28;20564;-62
2020/12/21 13:19:14;;;;;;;;;;;17.20;59.20;;;;;;5032482;28;19991;-65
2020/12/21 13:21:40;;;;;;;;;;;17.20;58.40;;;;;;5065520;28;20297;-64
2020/12/21 13:24:05;;;;;;;;;;;17.10;57.60;;;;;;5046051;28;20537;-64
2020/12/21 13:26:30;;;;;;;;;;;17.10;57.30;;;;;;5050048;28;20392;-64
2020/12/21 13:28:56;;;;;;;;;;;17.10;57.60;;;;;;5053161;28;19916;-65
2020/12/21 13:31:21;;;;;;;;;;;17.10;57.70;;;;;;5035734;28;19913;-64
2020/12/21 13:33:48;;;;;;;;;;;17.10;56.90;;;;;;5057086;28;20421;-63
2020/12/21 13:36:14;;;;;;;;;;;17.10;57.60;;;;;;5040888;28;19965;-63
2020/12/21 13:38:40;;;;;;;;;;;17.10;59.00;;;;;;5043100;28;19920;-64
2020/12/21 13:41:06;;;;;;;;;;;17.10;58.30;;;;;;5048450;28;19930;-64
2020/12/21 13:43:31;;;;;;;;;;;17.10;58.20;;;;;;5039760;28;19913;-63
2020/12/21 13:45:57;;;;;;;;;;;17.00;56.40;;;;;;5029943;28;20341;-64
2020/12/21 13:48:22;;;;;;;;;;;17.00;56.80;;;;;;5030579;28;19931;-64
2020/12/21 13:50:48;;;;;;;;;;;16.90;57.00;;;;;;5054338;28;19967;-63
2020/12/21 13:53:13;;;;;;;;;;;17.00;56.60;;;;;;5059617;28;19970;-63
2020/12/21 13:55:38;;;;;;;;;;;17.00;57.00;;;;;;5029094;28;20046;-63
2020/12/21 13:58:04;;;;;;;;;;;17.00;57.00;;;;;;5041915;28;19927;-62
2020/12/21 14:00:29;;;;;;;;;;;17.00;57.30;;;;;;5046730;28;19916;-63
2020/12/21 14:02:55;;;;;;;;;;;17.00;57.90;;;;;;5035612;28;19912;-64
2020/12/21 14:05:20;;;;;;;;;;;17.00;58.60;;;;;;5044393;28;20347;-64
2020/12/21 14:07:46;;;;;;;;;;;17.00;58.20;;;;;;5032800;28;19958;-64
2020/12/21 14:10:11;;;;;;;;;;;17.00;58.70;;;;;;5049802;28;19919;-64